Time;durP1;ratioP1;P1;durP2;ratioP2;P2;SDS_P1;SDS_P2;PMS_P1;PMS_P2;Temp;Humidity;BMP_temperature;BMP_pressure;BME280_temperature;BME280_humidity;BME280_pressure;Samples;Min_cycle;Max_cycle;Signal;HPM_P1;HPM_P2
2023/05/25 00:01:20;;;;;;;9.73;2.42;;;14.10;69.60;;;;;;6249922;28;20049;-77
2023/05/25 00:04:25;;;;;;;8.27;2.47;;;14.10;69.70;;;;;;6249960;28;20046;-76
2023/05/25 00:07:29;;;;;;;9.35;2.65;;;14.10;69.50;;;;;;6249764;28;20396;-77
2023/05/25 00:10:30;;;;;;;6.97;2.15;;;13.90;70.50;;;;;;6249690;28;20476;-73
2023/05/25 00:13:32;;;;;;;8.48;2.78;;;14.10;70.50;;;;;;6250065;28;20049;-75
2023/05/25 00:16:36;;;;;;;9.30;2.90;;;13.90;70.60;;;;;;6248649;28;20058;-74
2023/05/25 00:19:41;;;;;;;7.82;2.47;;;13.70;70.70;;;;;;6257558;28;20064;-75
2023/05/25 00:22:46;;;;;;;7.10;2.78;;;13.70;71.20;;;;;;6259516;28;20384;-75
2023/05/25 00:25:48;;;;;;;8.10;2.35;;;13.60;71.50;;;;;;6255620;28;20103;-76
2023/05/25 00:28:50;;;;;;;9.98;2.70;;;13.70;71.60;;;;;;6255617;28;20056;-74
2023/05/25 00:31:52;;;;;;;8.20;2.72;;;13.80;71.70;;;;;;6251727;28;20110;-76
2023/05/25 00:34:54;;;;;;;8.50;2.90;;;13.90;71.60;;;;;;6250014;28;20054;-75
2023/05/25 00:37:57;;;;;;;7.45;2.60;;;14.00;70.90;;;;;;6249446;28;20050;-75
2023/05/25 00:40:59;;;;;;;7.55;2.60;;;13.60;71.60;;;;;;6249936;28;20518;-77
2023/05/25 00:44:02;;;;;;;10.57;2.92;;;13.80;72.10;;;;;;6249327;28;20045;-76
2023/05/25 00:47:04;;;;;;;8.10;2.67;;;13.90;71.80;;;;;;6248889;28;20391;-75
2023/05/25 00:50:14;;;;;;;9.82;3.00;;;13.90;71.50;;;;;;6249200;28;20049;-77
2023/05/25 00:53:17;;;;;;;8.85;2.70;;;13.80;72.00;;;;;;6248791;28;20048;-76
2023/05/25 00:56:25;;;;;;;10.18;3.20;;;13.90;72.10;;;;;;6249084;28;20057;-74
2023/05/25 00:59:34;;;;;;;9.88;2.80;;;13.70;72.00;;;;;;6248899;28;20452;-75
2023/05/25 01:02:41;;;;;;;8.60;2.75;;;13.70;73.00;;;;;;6248905;28;20126;-75
2023/05/25 01:05:47;;;;;;;8.50;2.67;;;13.80;73.00;;;;;;6257650;28;20159;-77
2023/05/25 01:09:00;;;;;;;8.32;3.17;;;13.50;72.80;;;;;;6244120;28;20439;-76
2023/05/25 01:12:03;;;;;;;8.30;2.63;;;13.30;73.60;;;;;;6261133;28;20049;-75
2023/05/25 01:15:06;;;;;;;10.10;2.70;;;13.40;74.30;;;;;;6249345;28;20045;-74
2023/05/25 01:18:08;;;;;;;7.38;3.03;;;13.50;74.20;;;;;;6248618;28;20052;-74
2023/05/25 01:21:19;;;;;;;10.45;3.15;;;13.30;74.80;;;;;;6248312;28;20059;-75
2023/05/25 01:24:31;;;;;;;10.40;3.25;;;13.30;75.30;;;;;;6249865;28;20095;-75
2023/05/25 01:27:42;;;;;;;6.88;2.83;;;12.90;77.30;;;;;;6252548;28;20087;-76
2023/05/25 01:30:48;;;;;;;9.48;3.25;;;12.90;77.70;;;;;;6258040;28;20148;-74
2023/05/25 01:33:51;;;;;;;11.38;3.42;;;12.60;77.80;;;;;;6260533;28;20055;-74
2023/05/25 01:36:55;;;;;;;16.48;3.50;;;12.50;79.20;;;;;;6260760;28;20081;-75
2023/05/25 01:39:57;;;;;;;9.13;3.05;;;12.70;79.10;;;;;;6259740;28;20053;-74
2023/05/25 01:42:59;;;;;;;13.15;3.40;;;12.80;79.30;;;;;;6259279;28;20050;-74
2023/05/25 01:46:12;;;;;;;9.90;3.53;;;12.70;79.50;;;;;;6259120;28;20053;-75
2023/05/25 01:49:26;;;;;;;11.60;3.38;;;12.50;80.80;;;;;;6256480;28;20049;-76
2023/05/25 01:52:36;;;;;;;10.77;3.25;;;12.50;81.20;;;;;;6233498;28;20056;-74
2023/05/25 01:55:48;;;;;;;10.32;3.20;;;12.50;81.30;;;;;;6248538;28;20061;-73
2023/05/25 01:58:51;;;;;;;9.05;3.15;;;12.50;81.20;;;;;;6248830;28;20406;-74
2023/05/25 02:01:55;;;;;;;9.32;3.63;;;12.50;81.60;;;;;;6250240;28;20547;-75
2023/05/25 02:04:58;;;;;;;12.23;3.03;;;12.30;82.60;;;;;;6250392;28;20053;-75
2023/05/25 02:08:01;;;;;;;7.65;3.53;;;12.40;82.10;;;;;;6250441;28;20042;-74
2023/05/25 02:11:03;;;;;;;10.88;3.20;;;12.30;82.60;;;;;;6250627;28;20053;-75
2023/05/25 02:14:05;;;;;;;10.82;3.55;;;12.00;84.40;;;;;;6250948;28;20514;-76
2023/05/25 02:17:07;;;;;;;9.88;3.40;;;11.90;85.10;;;;;;6250469;28;20058;-74
2023/05/25 02:20:10;;;;;;;10.77;3.60;;;11.80;85.40;;;;;;6249294;28;20049;-74
2023/05/25 02:23:14;;;;;;;;;;;12.00;85.50;;;;;;6249117;28;20049;-76
2023/05/25 02:26:15;;;;;;;;;;;12.00;86.40;;;;;;6249563;28;19921;-73
2023/05/25 02:29:17;;;;;;;7.65;2.92;;;12.10;86.30;;;;;;6251485;28;19921;-74
2023/05/25 02:32:20;;;;;;;7.20;3.10;;;12.00;86.70;;;;;;6250586;28;20057;-76
2023/05/25 02:35:21;;;;;;;8.40;3.10;;;12.10;87.00;;;;;;6249516;28;20049;-76
2023/05/25 02:38:25;;;;;;;10.85;3.53;;;11.90;87.70;;;;;;6251095;28;20050;-76
2023/05/25 02:41:27;;;;;;;8.40;3.20;;;12.00;87.70;;;;;;6253229;28;20176;-76
2023/05/25 02:44:29;;;;;;;7.25;3.20;;;11.70;88.30;;;;;;6253076;28;20046;-74
2023/05/25 02:47:30;;;;;;;7.85;3.20;;;11.90;88.00;;;;;;6255951;28;20050;-74
2023/05/25 02:50:32;;;;;;;9.90;3.42;;;12.10;88.30;;;;;;6253617;28;20045;-74
2023/05/25 02:53:35;;;;;;;13.50;3.38;;;12.10;88.40;;;;;;6253902;28;20055;-75
2023/05/25 02:56:37;;;;;;;9.57;3.45;;;12.30;88.10;;;;;;6253072;28;20052;-76
2023/05/25 02:59:39;;;;;;;10.73;3.47;;;12.40;87.90;;;;;;6253629;28;20050;-75
2023/05/25 03:02:41;;;;;;;9.45;3.20;;;12.40;87.40;;;;;;6255519;28;20506;-75
2023/05/25 03:05:43;;;;;;;12.35;3.75;;;12.50;87.10;;;;;;6263226;28;20053;-76
2023/05/25 03:08:46;;;;;;;8.88;3.25;;;12.20;86.50;;;;;;6264610;28;20045;-76
2023/05/25 03:11:48;;;;;;;9.10;3.97;;;12.20;87.50;;;;;;6262692;28;20067;-75
2023/05/25 03:14:50;;;;;;;9.93;3.65;;;12.20;87.70;;;;;;6252909;28;20200;-74
2023/05/25 03:17:52;;;;;;;9.52;3.40;;;12.20;87.40;;;;;;6252492;28;20141;-76
2023/05/25 03:20:54;;;;;;;9.35;3.60;;;12.30;86.90;;;;;;6252288;28;20053;-76
2023/05/25 03:23:59;;;;;;;11.93;3.95;;;12.40;87.00;;;;;;6252326;28;20045;-75
2023/05/25 03:27:01;;;;;;;9.68;3.33;;;12.40;86.90;;;;;;6252769;28;20052;-76
2023/05/25 03:30:04;;;;;;;9.73;3.83;;;12.40;86.60;;;;;;6252184;28;20053;-74
2023/05/25 03:33:06;;;;;;;11.40;3.90;;;12.30;88.40;;;;;;6255121;28;20050;-76
2023/05/25 03:36:09;;;;;;;10.23;3.55;;;12.40;88.90;;;;;;6259668;28;20304;-76
2023/05/25 03:39:13;;;;;;;12.65;4.25;;;12.20;88.10;;;;;;6259588;28;20060;-75
2023/05/25 03:42:15;;;;;;;9.90;3.90;;;12.10;89.00;;;;;;6257530;28;20060;-73
2023/05/25 03:45:17;;;;;;;12.23;4.18;;;12.20;88.60;;;;;;6251171;28;20513;-76
2023/05/25 03:48:19;;;;;;;11.52;4.20;;;12.40;87.70;;;;;;6251479;28;20422;-76
2023/05/25 03:51:21;;;;;;;11.50;4.38;;;12.10;88.20;;;;;;6251309;28;20045;-76
2023/05/25 03:54:24;;;;;;;9.65;3.80;;;12.30;88.60;;;;;;6251414;28;20049;-75
2023/05/25 03:57:25;;;;;;;10.68;3.78;;;12.40;89.10;;;;;;6251266;28;20049;-76
2023/05/25 04:00:27;;;;;;;10.80;3.83;;;12.40;88.70;;;;;;6251650;28;20045;-75
2023/05/25 04:03:31;;;;;;;11.15;4.20;;;12.40;88.30;;;;;;6251212;28;20049;-75
2023/05/25 04:06:36;;;;;;;;;;;12.40;88.70;;;;;;6254197;28;20499;-76
2023/05/25 04:09:39;;;;;;;13.70;3.80;;;12.40;88.70;;;;;;6251848;28;20260;-75
2023/05/25 04:12:41;;;;;;;12.45;3.70;;;12.30;89.00;;;;;;6252085;28;20045;-74
2023/05/25 04:15:43;;;;;;;9.63;3.65;;;12.40;89.00;;;;;;6250639;28;20060;-74
2023/05/25 04:18:44;;;;;;;9.32;3.83;;;12.40;89.70;;;;;;6251180;28;20496;-76
2023/05/25 04:21:46;;;;;;;11.13;4.07;;;12.50;90.00;;;;;;6250695;28;20050;-76
2023/05/25 04:24:50;;;;;;;14.82;4.47;;;12.40;90.30;;;;;;6251276;28;20061;-76
2023/05/25 04:27:52;;;;;;;10.05;4.10;;;12.40;90.10;;;;;;6251384;28;20081;-76
2023/05/25 04:30:55;;;;;;;9.82;4.15;;;12.50;90.00;;;;;;6251524;28;20045;-76
2023/05/25 04:33:57;;;;;;;14.38;4.15;;;12.20;90.90;;;;;;6252058;28;20410;-76
2023/05/25 04:37:03;;;;;;;8.38;3.90;;;12.10;91.30;;;;;;6252259;28;20053;-74
2023/05/25 04:40:10;;;;;;;9.73;3.78;;;12.20;91.30;;;;;;6251715;28;20045;-76
2023/05/25 04:43:17;;;;;;;10.75;3.97;;;12.40;91.30;;;;;;6250959;28;20175;-75
2023/05/25 04:46:19;;;;;;;13.63;4.47;;;12.40;91.30;;;;;;6250380;28;20049;-76
2023/05/25 04:49:21;;;;;;;9.57;3.90;;;12.50;91.00;;;;;;6250608;28;20052;-74
2023/05/25 04:52:23;;;;;;;9.23;4.63;;;12.50;91.00;;;;;;6253565;28;20045;-74
2023/05/25 04:55:26;;;;;;;10.93;4.45;;;12.50;91.00;;;;;;6256794;28;20050;-75
2023/05/25 04:58:29;;;;;;;10.68;4.15;;;12.60;91.10;;;;;;6261940;28;20052;-76
2023/05/25 05:01:33;;;;;;;12.75;4.43;;;12.60;90.90;;;;;;6260695;28;20068;-77
2023/05/25 05:04:36;;;;;;;13.98;4.10;;;12.60;90.70;;;;;;6261137;28;20057;-76
2023/05/25 05:07:37;;;;;;;9.60;3.92;;;12.70;91.00;;;;;;6255110;28;20049;-78
2023/05/25 05:10:44;;;;;;;9.52;4.25;;;12.70;90.90;;;;;;6250301;28;20056;-74
2023/05/25 05:13:46;;;;;;;13.55;4.35;;;12.70;91.40;;;;;;6249213;28;20399;-76
2023/05/25 05:16:48;;;;;;;12.85;4.30;;;12.80;91.60;;;;;;6253034;28;20060;-74
2023/05/25 05:19:50;;;;;;;11.68;4.10;;;12.80;91.60;;;;;;6264183;28;20046;-76
2023/05/25 05:22:52;;;;;;;11.27;4.07;;;12.90;91.80;;;;;;6264870;28;20060;-75
2023/05/25 05:25:55;;;;;;;12.25;4.90;;;12.90;91.70;;;;;;6264682;28;20063;-75
2023/05/25 05:28:57;;;;;;;11.10;4.60;;;12.90;91.60;;;;;;6264853;28;20055;-75
2023/05/25 05:32:00;;;;;;;12.70;4.70;;;13.00;91.80;;;;;;6265175;28;20111;-76
2023/05/25 05:35:01;;;;;;;13.48;4.82;;;13.00;91.20;;;;;;6252898;28;20493;-75
2023/05/25 05:38:03;;;;;;;13.05;5.13;;;12.70;92.10;;;;;;6249414;28;20057;-74
2023/05/25 05:41:12;;;;;;;11.85;4.95;;;12.90;92.20;;;;;;6248541;28;20095;-74
2023/05/25 05:44:14;;;;;;;13.85;4.50;;;13.00;92.00;;;;;;6248939;28;20046;-76
2023/05/25 05:47:16;;;;;;;12.50;4.63;;;13.10;92.00;;;;;;6251575;28;20050;-75
2023/05/25 05:50:18;;;;;;;12.27;5.37;;;13.20;91.80;;;;;;6261477;28;20052;-76
2023/05/25 05:53:20;;;;;;;13.38;5.05;;;13.30;92.40;;;;;;6262153;28;20059;-76
2023/05/25 05:56:23;;;;;;;11.98;4.82;;;13.40;92.50;;;;;;6258468;28;20041;-74
2023/05/25 05:59:25;;;;;;;10.85;4.78;;;13.40;92.50;;;;;;6249111;28;20054;-75
2023/05/25 06:02:27;;;;;;;10.98;4.88;;;13.40;92.60;;;;;;6248758;28;20042;-76
2023/05/25 06:05:29;;;;;;;11.77;5.10;;;13.40;91.90;;;;;;6248550;28;20407;-75
2023/05/25 06:08:31;;;;;;;11.93;5.18;;;13.40;92.10;;;;;;6248356;28;20057;-76
2023/05/25 06:11:38;;;;;;;14.45;5.55;;;13.30;92.10;;;;;;6248539;28;20049;-75
2023/05/25 06:14:41;;;;;;;16.52;5.45;;;13.40;92.00;;;;;;6251658;28;20055;-75
2023/05/25 06:17:42;;;;;;;12.00;5.70;;;13.50;91.60;;;;;;6253572;28;20053;-75
2023/05/25 06:20:44;;;;;;;11.48;5.88;;;13.60;91.70;;;;;;6252778;28;20467;-76
2023/05/25 06:23:47;;;;;;;20.38;5.90;;;13.60;91.80;;;;;;6253208;28;20041;-75
2023/05/25 06:26:50;;;;;;;15.18;5.63;;;13.60;92.20;;;;;;6253455;28;20045;-75
2023/05/25 06:29:52;;;;;;;14.23;5.82;;;13.60;92.70;;;;;;6253878;28;20577;-73
2023/05/25 06:32:53;;;;;;;16.17;6.28;;;13.50;92.30;;;;;;6252864;28;20045;-73
2023/05/25 06:35:59;;;;;;;17.50;6.13;;;13.60;92.50;;;;;;6252464;28;20064;-75
2023/05/25 06:39:00;;;;;;;14.45;6.03;;;13.60;92.80;;;;;;6253378;28;20088;-75
2023/05/25 06:42:04;;;;;;;13.80;5.95;;;13.70;92.60;;;;;;6252706;28;20050;-76
2023/05/25 06:45:08;;;;;;;19.50;6.32;;;13.70;93.00;;;;;;6253548;28;20053;-74
2023/05/25 06:48:10;;;;;;;15.55;6.03;;;13.80;92.80;;;;;;6256543;28;20053;-74
2023/05/25 06:51:12;;;;;;;17.45;6.75;;;13.90;92.90;;;;;;6267061;28;20049;-75
2023/05/25 06:54:14;;;;;;;17.33;6.93;;;13.90;93.10;;;;;;6272374;28;20049;-74
2023/05/25 06:57:17;;;;;;;15.60;6.07;;;13.90;93.40;;;;;;6274572;28;20084;-77
2023/05/25 07:00:21;;;;;;;14.63;6.38;;;14.00;93.40;;;;;;6274476;28;20161;-75
2023/05/25 07:03:22;;;;;;;;;;;14.00;93.60;;;;;;6265706;28;20105;-75
2023/05/25 07:06:25;;;;;;;16.92;6.75;;;14.10;93.40;;;;;;6252880;28;19925;-77
2023/05/25 07:09:27;;;;;;;14.27;5.88;;;14.20;93.00;;;;;;6252615;28;20053;-76
2023/05/25 07:12:30;;;;;;;15.02;6.30;;;14.30;93.10;;;;;;6252124;28;20514;-76
2023/05/25 07:15:32;;;;;;;19.10;8.85;;;14.30;93.50;;;;;;6252277;28;20045;-76
2023/05/25 07:18:34;;;;;;;18.67;8.80;;;14.20;93.80;;;;;;6251433;28;20380;-73
2023/05/25 07:21:36;;;;;;;16.25;7.60;;;14.30;93.30;;;;;;6251127;28;20418;-77
2023/05/25 07:24:38;;;;;;;17.42;7.60;;;14.40;93.60;;;;;;6251142;28;20053;-76
2023/05/25 07:27:41;;;;;;;17.42;7.43;;;14.50;93.30;;;;;;6251463;28;20056;-76
2023/05/25 07:30:43;;;;;;;;;;;14.60;93.20;;;;;;6251634;28;20045;-75
2023/05/25 07:33:45;;;;;;;15.07;6.75;;;14.70;93.10;;;;;;6251159;28;19921;-76
2023/05/25 07:36:47;;;;;;;15.45;6.20;;;14.80;93.10;;;;;;6251241;28;20053;-75
2023/05/25 07:39:49;;;;;;;13.70;5.68;;;15.00;92.60;;;;;;6251054;28;20045;-74
2023/05/25 07:42:52;;;;;;;13.88;6.35;;;15.20;92.20;;;;;;6251056;28;20435;-75
2023/05/25 07:45:54;;;;;;;11.85;5.55;;;15.20;91.90;;;;;;6253941;28;20049;-75
2023/05/25 07:48:58;;;;;;;13.80;5.88;;;15.20;91.80;;;;;;6251461;28;20057;-75
2023/05/25 07:52:04;;;;;;;;;;;15.00;92.20;;;;;;6251280;28;20095;-75
2023/05/25 07:55:07;;;;;;;15.38;6.47;;;14.70;92.70;;;;;;6251046;28;19931;-75
2023/05/25 07:58:11;;;;;;;13.52;5.95;;;14.80;92.80;;;;;;6250927;28;20055;-76
2023/05/25 08:01:13;;;;;;;12.48;6.25;;;14.90;92.50;;;;;;6250194;28;20147;-74
2023/05/25 08:04:15;;;;;;;14.80;6.15;;;15.00;92.50;;;;;;6250595;28;20152;-76
2023/05/25 08:07:19;;;;;;;12.57;6.20;;;15.10;92.40;;;;;;6250356;28;20190;-76
2023/05/25 08:10:22;;;;;;;12.43;6.03;;;15.40;92.30;;;;;;6250038;28;20049;-75
2023/05/25 08:13:25;;;;;;;14.20;6.30;;;15.20;92.50;;;;;;6250274;28;20049;-76
2023/05/25 08:16:27;;;;;;;13.38;6.20;;;15.10;92.70;;;;;;6250580;28;20136;-74
2023/05/25 08:19:30;;;;;;;11.95;6.00;;;15.30;93.00;;;;;;6249667;28;20050;-74
2023/05/25 08:22:31;;;;;;;12.17;6.03;;;15.30;93.00;;;;;;6250398;28;20240;-74
2023/05/25 08:25:33;;;;;;;13.77;6.30;;;15.50;92.90;;;;;;6250413;28;20045;-76
2023/05/25 08:28:36;;;;;;;16.90;6.95;;;15.60;92.70;;;;;;6250001;28;20049;-75
2023/05/25 08:31:40;;;;;;;16.38;6.80;;;15.80;92.80;;;;;;6259187;28;20041;-76
2023/05/25 08:34:42;;;;;;;13.77;6.72;;;16.00;92.50;;;;;;6260639;28;20048;-75
2023/05/25 08:37:44;;;;;;;15.65;7.50;;;15.90;92.30;;;;;;6259132;28;20071;-75
2023/05/25 08:40:53;;;;;;;13.80;7.47;;;15.90;92.50;;;;;;6254672;28;20050;-74
2023/05/25 08:43:56;;;;;;;15.52;7.07;;;16.20;92.00;;;;;;6249442;28;20143;-74
2023/05/25 08:47:04;;;;;;;15.50;6.75;;;16.10;92.20;;;;;;6249129;28;20060;-76
2023/05/25 08:50:09;;;;;;;14.93;7.22;;;16.40;92.10;;;;;;6249433;28;20124;-75
2023/05/25 08:53:14;;;;;;;15.43;7.15;;;16.40;91.80;;;;;;6249309;28;20060;-74
2023/05/25 08:56:20;;;;;;;15.68;6.47;;;16.50;91.50;;;;;;6249501;28;20103;-75
2023/05/25 08:59:31;;;;;;;15.15;6.45;;;16.70;91.80;;;;;;6249843;28;20678;-75
2023/05/25 09:02:41;;;;;;;18.30;6.70;;;16.70;91.20;;;;;;6249619;28;20056;-76
2023/05/25 09:05:43;;;;;;;14.70;6.63;;;16.80;91.00;;;;;;6249741;28;20042;-76
2023/05/25 09:08:46;;;;;;;12.95;6.65;;;16.80;91.50;;;;;;6248593;28;20056;-75
2023/05/25 09:11:48;;;;;;;15.53;6.73;;;17.00;91.00;;;;;;6248410;28;20050;-75
2023/05/25 09:14:53;;;;;;;14.32;6.72;;;17.00;90.90;;;;;;6248531;28;20046;-74
2023/05/25 09:17:54;;;;;;;14.50;7.22;;;17.10;91.00;;;;;;6248338;28;20042;-75
2023/05/25 09:20:56;;;;;;;10.68;6.22;;;17.20;91.20;;;;;;6248378;28;20189;-74
2023/05/25 09:23:59;;;;;;;15.30;6.90;;;17.20;91.30;;;;;;6248564;28;20072;-75
2023/05/25 09:27:02;;;;;;;16.63;7.68;;;17.30;91.20;;;;;;6248595;28;20049;-75
2023/05/25 09:30:07;;;;;;;18.65;6.97;;;17.50;90.60;;;;;;6248667;28;20591;-74
2023/05/25 09:33:10;;;;;;;14.50;7.38;;;17.50;90.70;;;;;;6248690;28;20053;-76
2023/05/25 09:36:15;;;;;;;14.82;6.55;;;17.70;90.50;;;;;;6248316;28;20052;-77
2023/05/25 09:39:19;;;;;;;14.45;6.47;;;17.70;90.70;;;;;;6250381;28;20049;-73
2023/05/25 09:42:21;;;;;;;12.20;6.53;;;17.80;90.90;;;;;;6259221;28;20123;-73
2023/05/25 09:45:25;;;;;;;13.68;7.38;;;17.80;90.50;;;;;;6254637;28;20422;-74
2023/05/25 09:48:28;;;;;;;14.40;6.90;;;17.80;90.40;;;;;;6247791;28;20081;-74
2023/05/25 09:51:32;;;;;;;14.80;7.32;;;17.80;90.90;;;;;;6247978;28;20050;-76
2023/05/25 09:54:34;;;;;;;13.75;6.43;;;17.80;90.60;;;;;;6230509;28;20140;-76
2023/05/25 09:57:36;;;;;;;13.23;6.80;;;18.00;90.50;;;;;;6250837;28;20053;-75
2023/05/25 10:00:39;;;;;;;16.35;7.30;;;18.20;90.30;;;;;;6248403;28;20042;-75
2023/05/25 10:03:46;;;;;;;16.38;7.32;;;18.10;90.90;;;;;;6252805;28;20058;-76
2023/05/25 10:06:49;;;;;;;11.52;6.80;;;18.10;90.40;;;;;;6266128;28;20052;-76
2023/05/25 10:09:54;;;;;;;16.17;6.55;;;18.30;90.80;;;;;;6260757;28;20056;-75
2023/05/25 10:12:57;;;;;;;13.98;7.03;;;18.30;90.50;;;;;;6261539;28;20045;-75
2023/05/25 10:16:02;;;;;;;13.45;6.47;;;18.40;90.50;;;;;;6247435;28;20197;-73
2023/05/25 10:19:08;;;;;;;12.27;6.70;;;18.60;90.60;;;;;;6247451;28;20056;-74
2023/05/25 10:22:16;;;;;;;12.40;6.50;;;18.60;90.30;;;;;;6247690;28;20064;-74
2023/05/25 10:25:26;;;;;;;10.75;6.32;;;18.70;90.10;;;;;;6247777;28;20479;-75
2023/05/25 10:28:30;;;;;;;12.88;7.03;;;18.80;90.20;;;;;;6247669;28;20057;-75
2023/05/25 10:31:36;;;;;;;14.13;6.53;;;18.90;89.60;;;;;;6248108;28;20102;-75
2023/05/25 10:34:38;;;;;;;12.20;6.82;;;18.70;89.30;;;;;;6247572;28;20045;-77
2023/05/25 10:37:40;;;;;;;13.55;6.97;;;19.00;89.30;;;;;;6247486;28;20042;-74
2023/05/25 10:40:47;;;;;;;13.90;6.70;;;19.00;87.80;;;;;;6247505;28;20506;-75
2023/05/25 10:43:51;;;;;;;12.23;6.45;;;19.00;88.30;;;;;;6247538;28;20095;-73
2023/05/25 10:46:54;;;;;;;12.68;6.25;;;19.30;88.60;;;;;;6247478;28;20048;-74
2023/05/25 10:49:57;;;;;;;10.50;5.90;;;19.50;88.40;;;;;;6247103;28;20136;-76
2023/05/25 10:53:01;;;;;;;13.15;6.57;;;19.50;87.90;;;;;;6247370;28;20502;-75
2023/05/25 10:56:06;;;;;;;10.60;5.72;;;19.60;88.30;;;;;;6247127;28;20499;-76
2023/05/25 10:59:13;;;;;;;12.40;6.40;;;19.60;87.40;;;;;;6247663;28;20148;-74
2023/05/25 11:02:17;;;;;;;14.38;5.78;;;19.70;86.80;;;;;;6251644;28;20108;-75
2023/05/25 11:05:40;;;;;;;12.10;5.97;;;19.40;87.60;;;;;;6251774;28;20403;-74
2023/05/25 11:08:54;;;;;;;9.38;5.22;;;19.60;87.00;;;;;;6245308;28;20403;-74
2023/05/25 11:12:05;;;;;;;10.93;5.47;;;19.90;87.70;;;;;;6252935;28;20053;-74
2023/05/25 11:15:15;;;;;;;13.07;6.22;;;20.00;87.40;;;;;;6263665;28;20112;-75
2023/05/25 11:18:19;;;;;;;12.63;5.88;;;20.00;86.50;;;;;;6248227;28;20077;-75
2023/05/25 11:21:42;;;;;;;11.25;5.72;;;20.10;86.60;;;;;;6258779;28;20057;-74
2023/05/25 11:24:44;;;;;;;11.05;5.70;;;20.00;85.90;;;;;;6251214;28;20057;-74
2023/05/25 11:27:47;;;;;;;13.73;5.70;;;20.00;86.10;;;;;;6251131;28;20053;-74
2023/05/25 11:30:51;;;;;;;10.85;5.80;;;20.00;85.30;;;;;;6233565;28;20052;-76
2023/05/25 11:33:57;;;;;;;12.40;5.55;;;20.20;85.50;;;;;;6251179;28;20573;-74
2023/05/25 11:37:02;;;;;;;13.50;5.93;;;20.20;86.20;;;;;;6250654;28;20403;-75
2023/05/25 11:40:08;;;;;;;12.10;5.47;;;20.30;85.80;;;;;;6250526;28;20049;-74
2023/05/25 11:43:13;;;;;;;14.30;6.47;;;20.30;85.70;;;;;;6250722;28;20060;-74
2023/05/25 11:46:18;;;;;;;12.80;6.13;;;20.10;85.30;;;;;;6250461;28;20053;-74
2023/05/25 11:49:23;;;;;;;11.77;5.85;;;20.20;86.70;;;;;;6250338;28;20054;-75
2023/05/25 11:52:25;;;;;;;12.65;5.80;;;20.40;85.80;;;;;;6250218;28;20045;-74
2023/05/25 11:55:27;;;;;;;11.68;5.43;;;20.60;86.30;;;;;;6250463;28;20048;-74
2023/05/25 11:58:33;;;;;;;11.00;5.57;;;20.50;85.90;;;;;;6250146;28;20445;-75
2023/05/25 12:01:35;;;;;;;11.10;5.70;;;20.60;85.30;;;;;;6249678;28;20049;-73
2023/05/25 12:04:39;;;;;;;10.35;5.47;;;20.70;85.00;;;;;;6250103;28;20051;-73
2023/05/25 12:07:42;;;;;;;;;;;20.70;85.90;;;;;;6250178;28;20399;-76
2023/05/25 12:10:51;;;;;;;11.88;5.65;;;20.90;84.90;;;;;;6249616;28;19921;-76
2023/05/25 12:13:53;;;;;;;15.77;5.68;;;21.10;84.30;;;;;;6249661;28;20479;-74
2023/05/25 12:16:56;;;;;;;13.10;5.77;;;21.30;83.40;;;;;;6249608;28;20483;-75
2023/05/25 12:19:59;;;;;;;12.30;5.63;;;21.20;82.60;;;;;;6250013;28;20055;-74
2023/05/25 12:23:01;;;;;;;11.38;4.95;;;21.00;83.70;;;;;;6249341;28;20052;-74
2023/05/25 12:26:10;;;;;;;10.32;5.60;;;21.00;83.90;;;;;;6249724;28;20052;-74
2023/05/25 12:29:12;;;;;;;10.90;6.00;;;21.10;82.80;;;;;;6249046;28;20503;-75
2023/05/25 12:32:14;;;;;;;12.15;5.75;;;21.20;82.70;;;;;;6250393;28;20127;-75
2023/05/25 12:35:17;;;;;;;12.00;6.05;;;21.40;81.90;;;;;;6249966;28;20057;-75
2023/05/25 12:38:21;;;;;;;;;;;21.20;81.50;;;;;;6250759;28;20052;-75
2023/05/25 12:41:23;;;;;;;12.07;5.32;;;21.20;81.50;;;;;;6249978;28;19925;-74
2023/05/25 12:44:30;;;;;;;10.68;5.50;;;21.20;82.70;;;;;;6250902;28;20050;-75
2023/05/25 12:47:32;;;;;;;14.18;5.75;;;21.30;82.90;;;;;;6250825;28;20525;-73
2023/05/25 12:50:35;;;;;;;12.48;6.03;;;21.50;82.20;;;;;;6250204;28;20050;-74
2023/05/25 12:53:48;;;;;;;11.57;6.07;;;21.40;81.00;;;;;;6252088;28;20045;-74
2023/05/25 12:56:56;;;;;;;14.73;5.38;;;21.60;81.20;;;;;;6250156;28;20045;-74
2023/05/25 12:59:58;;;;;;;10.70;5.20;;;22.00;81.60;;;;;;6250287;28;20060;-75
2023/05/25 13:03:00;;;;;;;10.25;5.22;;;22.00;80.80;;;;;;6249010;28;20057;-75
2023/05/25 13:06:07;;;;;;;9.53;4.43;;;22.10;79.70;;;;;;6249147;28;20049;-75
2023/05/25 13:09:09;;;;;;;10.63;4.97;;;22.30;79.80;;;;;;6249151;28;20052;-74
2023/05/25 13:12:11;;;;;;;8.68;4.45;;;22.30;79.10;;;;;;6248964;28;20049;-76
2023/05/25 13:15:17;;;;;;;12.30;4.90;;;22.20;79.40;;;;;;6249398;28;20046;-74
2023/05/25 13:18:19;;;;;;;10.80;4.80;;;22.30;80.60;;;;;;6253717;28;20046;-75
2023/05/25 13:21:22;;;;;;;12.20;5.03;;;22.10;79.90;;;;;;6251534;28;20080;-74
2023/05/25 13:24:24;;;;;;;;;;;22.10;79.30;;;;;;6251377;28;20056;-73
2023/05/25 13:27:26;;;;;;;11.15;4.65;;;22.00;78.70;;;;;;6271817;28;20015;-76
2023/05/25 13:30:27;;;;;;;11.07;4.78;;;22.40;78.40;;;;;;6271698;28;20064;-75
2023/05/25 13:33:29;;;;;;;12.45;5.03;;;22.10;78.20;;;;;;6272769;28;20045;-74
2023/05/25 13:36:33;;;;;;;13.52;4.85;;;22.20;77.90;;;;;;6257873;28;20048;-75
2023/05/25 13:39:35;;;;;;;12.50;4.88;;;22.20;78.70;;;;;;6260501;28;20454;-74
2023/05/25 13:42:37;;;;;;;9.30;4.73;;;22.40;79.00;;;;;;6247909;28;20103;-75
2023/05/25 13:45:39;;;;;;;9.05;4.72;;;22.40;78.60;;;;;;6248121;28;20049;-74
2023/05/25 13:48:46;;;;;;;11.00;4.75;;;22.80;78.30;;;;;;6247782;28;20065;-75
2023/05/25 13:51:49;;;;;;;12.57;4.63;;;23.30;77.80;;;;;;6248084;28;20045;-76
2023/05/25 13:54:51;;;;;;;11.07;4.82;;;23.10;74.90;;;;;;6254102;28;20159;-75
2023/05/25 13:57:53;;;;;;;11.38;4.35;;;22.90;74.80;;;;;;6253461;28;20053;-75
2023/05/25 14:00:55;;;;;;;9.02;4.30;;;23.20;76.10;;;;;;6251865;28;20081;-74
2023/05/25 14:03:58;;;;;;;9.25;4.40;;;23.60;74.50;;;;;;6247942;28;20052;-74
2023/05/25 14:07:01;;;;;;;;;;;24.00;74.20;;;;;;6248166;28;20498;-74
2023/05/25 14:10:03;;;;;;;9.13;4.72;;;24.30;73.10;;;;;;6247646;28;20367;-74
2023/05/25 14:13:05;;;;;;;9.95;4.13;;;24.60;72.20;;;;;;6247706;28;20045;-73
2023/05/25 14:16:09;;;;;;;8.65;4.20;;;24.80;72.00;;;;;;6247525;28;20050;-75
2023/05/25 14:19:11;;;;;;;9.80;4.22;;;25.10;69.70;;;;;;6247551;28;20049;-76
2023/05/25 14:22:14;;;;;;;10.75;4.32;;;24.80;70.00;;;;;;6252081;28;20054;-75
2023/05/25 14:25:16;;;;;;;8.82;4.03;;;25.00;69.70;;;;;;6261033;28;20046;-75
2023/05/25 14:28:18;;;;;;;7.97;3.75;;;25.40;69.40;;;;;;6261488;28;20060;-74
2023/05/25 14:31:20;;;;;;;8.93;4.45;;;25.60;68.10;;;;;;6258361;28;20049;-75
2023/05/25 14:34:21;;;;;;;10.40;4.10;;;25.90;68.40;;;;;;6257682;28;20509;-74
2023/05/25 14:37:25;;;;;;;11.23;4.47;;;26.00;68.10;;;;;;6252421;28;20041;-74
2023/05/25 14:40:27;;;;;;;9.63;4.32;;;26.00;67.40;;;;;;6251554;28;20049;-75
2023/05/25 14:43:29;;;;;;;8.68;4.13;;;26.50;67.20;;;;;;6251757;28;20136;-76
2023/05/25 14:46:33;;;;;;;8.13;4.28;;;26.10;65.10;;;;;;6251391;28;20046;-76
2023/05/25 14:49:35;;;;;;;9.27;4.13;;;25.90;64.50;;;;;;6251459;28;20061;-75
2023/05/25 14:52:38;;;;;;;9.23;4.18;;;26.10;65.50;;;;;;6251300;28;20050;-75
2023/05/25 14:55:40;;;;;;;10.77;4.20;;;26.20;64.90;;;;;;6251247;28;20046;-75
2023/05/25 14:58:43;;;;;;;10.43;3.97;;;26.60;65.50;;;;;;6251278;28;20045;-75
2023/05/25 15:01:45;;;;;;;10.15;4.50;;;26.60;64.10;;;;;;6251077;28;20046;-76
2023/05/25 15:04:47;;;;;;;9.47;4.40;;;25.80;64.80;;;;;;6251302;28;20049;-77
2023/05/25 15:07:50;;;;;;;9.13;3.88;;;25.80;64.80;;;;;;6250796;28;20049;-76
2023/05/25 15:10:52;;;;;;;9.13;3.80;;;25.60;65.60;;;;;;6251077;28;20049;-76
2023/05/25 15:13:56;;;;;;;9.00;4.10;;;25.40;65.40;;;;;;6232924;28;20056;-75
2023/05/25 15:16:58;;;;;;;11.48;4.30;;;25.40;65.40;;;;;;6250910;28;20383;-75
2023/05/25 15:20:00;;;;;;;7.38;3.92;;;25.30;65.40;;;;;;6233247;28;20053;-74
2023/05/25 15:23:03;;;;;;;12.30;4.20;;;25.20;65.70;;;;;;6250570;28;20476;-73
2023/05/25 15:26:06;;;;;;;8.25;3.83;;;25.60;65.90;;;;;;6232808;28;20383;-75
2023/05/25 15:29:08;;;;;;;8.50;4.00;;;26.20;65.10;;;;;;6250098;28;20494;-74
2023/05/25 15:32:12;;;;;;;10.82;4.03;;;26.40;64.00;;;;;;6250118;28;20411;-74
2023/05/25 15:35:14;;;;;;;8.95;4.13;;;26.80;62.80;;;;;;6250019;28;20489;-76
2023/05/25 15:38:17;;;;;;;7.65;3.80;;;27.10;62.80;;;;;;6250273;28;20479;-76
2023/05/25 15:41:19;;;;;;;7.93;4.20;;;27.50;62.50;;;;;;6249929;28;20054;-73
2023/05/25 15:44:21;;;;;;;11.32;4.22;;;27.70;60.30;;;;;;6250423;28;20050;-76
2023/05/25 15:47:23;;;;;;;12.05;4.38;;;27.70;60.20;;;;;;6249563;28;20503;-76
2023/05/25 15:50:26;;;;;;;9.20;4.28;;;27.70;58.90;;;;;;6249541;28;20049;-73